Terminal Aerodrome Forecast
Issued by NWS

Home | Current Version | Previous Version | Text Only | Print | Product List | Glossary On
Versions: 1 2 3 4 5 6 7 8 9 10 11
262
FTUS43 KDVN 211120
TAFCID
TAF
KCID 211120Z 2112/2212 31009KT P6SM SCT035
     FM211500 02013G20KT P6SM FEW040
     FM220100 05008KT P6SM SCT250=

USA.gov is the U.S. government's official web portal to all federal, state and local government web resources and services.